Time;durP1;ratioP1;P1;durP2;ratioP2;P2;SDS_P1;SDS_P2;PMS_P1;PMS_P2;Temp;Humidity;BMP_temperature;BMP_pressure;BME280_temperature;BME280_humidity;BME280_pressure;Samples;Min_cycle;Max_cycle;Signal;HPM_P1;HPM_P2
2023/03/05 00:00:53;;;;;;;56.93;30.40;;;-0.20;99.90;;;;;;5037731;28;20100;-84
2023/03/05 00:03:19;;;;;;;52.73;27.23;;;-0.20;99.90;;;;;;5039030;28;20101;-84
2023/03/05 00:05:44;;;;;;;58.70;29.83;;;-0.20;99.90;;;;;;5037052;28;20025;-84
2023/03/05 00:08:10;;;;;;;61.70;32.33;;;-0.20;99.90;;;;;;5038786;28;20037;-84
2023/03/05 00:10:35;;;;;;;54.63;29.60;;;-0.10;99.90;;;;;;5036065;28;20116;-85
2023/03/05 00:13:01;;;;;;;55.53;30.30;;;-0.10;99.90;;;;;;5037285;28;20031;-85
2023/03/05 00:15:26;;;;;;;56.50;28.77;;;-0.20;99.90;;;;;;5037289;28;20044;-85
2023/03/05 00:17:52;;;;;;;52.13;28.33;;;-0.20;99.90;;;;;;5034780;28;20029;-85
2023/03/05 00:20:18;;;;;;;53.87;28.13;;;-0.20;99.90;;;;;;5032513;28;20038;-84
2023/03/05 00:22:43;;;;;;;51.37;26.53;;;-0.20;99.90;;;;;;5034777;28;20104;-85
2023/03/05 00:25:09;;;;;;;56.63;28.00;;;-0.20;99.90;;;;;;5039035;28;20096;-85
2023/03/05 00:27:34;;;;;;;58.47;29.73;;;-0.20;99.90;;;;;;5035546;28;20044;-84
2023/03/05 00:30:00;;;;;;;54.70;28.20;;;-0.30;99.90;;;;;;5036449;28;20688;-84
2023/03/05 00:32:25;;;;;;;51.67;26.80;;;-0.30;99.90;;;;;;5032797;28;20498;-84
2023/03/05 00:34:51;;;;;;;58.87;29.27;;;-0.30;99.90;;;;;;5038705;28;20037;-84
2023/03/05 00:37:16;;;;;;;56.57;28.87;;;-0.30;99.90;;;;;;5038266;28;20037;-85
2023/03/05 00:39:42;;;;;;;57.23;28.60;;;-0.30;99.90;;;;;;5037437;28;20079;-84
2023/03/05 00:42:07;;;;;;;57.67;30.13;;;-0.30;99.90;;;;;;5034486;28;21392;-84
2023/03/05 00:44:33;;;;;;;55.07;28.43;;;-0.30;99.90;;;;;;5035364;28;20501;-84
2023/03/05 00:46:58;;;;;;;56.43;28.87;;;-0.30;99.90;;;;;;5034222;28;20210;-85
2023/03/05 00:49:24;;;;;;;54.53;29.23;;;-0.30;99.90;;;;;;5037032;28;20124;-85
2023/03/05 00:51:50;;;;;;;52.80;27.97;;;-0.30;99.90;;;;;;5034168;28;20539;-84
2023/03/05 00:54:16;;;;;;;55.63;28.87;;;-0.30;99.90;;;;;;5037601;28;20060;-84
2023/03/05 00:56:41;;;;;;;56.87;29.80;;;-0.40;99.90;;;;;;5038344;28;20064;-85
2023/03/05 00:59:07;;;;;;;54.07;27.67;;;-0.40;99.90;;;;;;5038593;28;20029;-84
2023/03/05 01:01:33;;;;;;;58.83;29.90;;;-0.40;99.90;;;;;;5038721;28;20112;-85
2023/03/05 01:04:00;;;;;;;64.17;29.63;;;-0.40;99.90;;;;;;5036671;28;20123;-84
2023/03/05 01:06:26;;;;;;;60.47;29.33;;;-0.40;99.90;;;;;;5037969;28;20370;-84
2023/03/05 01:08:51;;;;;;;54.20;28.63;;;-0.40;99.90;;;;;;5038986;28;20033;-84
2023/03/05 01:11:17;;;;;;;54.67;29.13;;;-0.40;99.90;;;;;;5036289;28;20021;-84
2023/03/05 01:13:42;;;;;;;56.00;28.83;;;-0.40;99.90;;;;;;5035623;28;20025;-84
2023/03/05 01:16:08;;;;;;;59.03;30.53;;;-0.30;99.90;;;;;;5037533;28;20112;-85
2023/03/05 01:18:34;;;;;;;60.37;31.30;;;-0.30;99.90;;;;;;5034939;28;20363;-84
2023/03/05 01:20:59;;;;;;;60.60;30.80;;;-0.30;99.90;;;;;;5036204;28;20093;-84
2023/03/05 01:23:25;;;;;;;63.00;31.60;;;-0.40;99.90;;;;;;5037508;28;20025;-84
2023/03/05 01:25:55;;;;;;;56.60;30.33;;;-0.30;99.90;;;;;;5037297;28;20030;-84
2023/03/05 01:28:22;;;;;;;61.30;31.90;;;-0.30;99.90;;;;;;5038560;28;20056;-84
2023/03/05 01:30:47;;;;;;;65.80;30.70;;;-0.30;99.90;;;;;;5039749;28;20335;-84
2023/03/05 01:33:13;;;;;;;61.00;30.53;;;-0.30;99.90;;;;;;5041439;28;20036;-84
2023/03/05 01:35:38;;;;;;;61.43;30.43;;;-0.30;99.90;;;;;;5043292;28;20112;-84
2023/03/05 01:38:04;;;;;;;61.87;30.13;;;-0.30;99.90;;;;;;5040649;28;20029;-85
2023/03/05 01:40:30;;;;;;;59.13;30.33;;;-0.20;99.90;;;;;;5040839;28;20033;-85
2023/03/05 01:43:34;;;;;;;56.87;30.50;;;-0.30;99.90;;;;;;5041123;28;20508;-84
2023/03/05 01:46:34;;;;;;;62.43;30.87;;;-0.20;99.90;;;;;;5041538;28;20030;-84
2023/03/05 01:49:08;;;;;;;59.10;30.73;;;-0.20;99.90;;;;;;5038422;28;20425;-84
2023/03/05 01:51:45;;;;;;;63.10;31.70;;;-0.20;99.90;;;;;;5038717;28;20493;-84
2023/03/05 01:54:14;;;;;;;67.37;34.23;;;-0.20;99.90;;;;;;5038928;28;20029;-85
2023/03/05 01:56:41;;;;;;;65.67;33.80;;;-0.20;99.90;;;;;;5040528;28;20538;-84
2023/03/05 01:59:06;;;;;;;63.57;32.10;;;-0.10;99.90;;;;;;5039397;28;20029;-84
2023/03/05 02:01:41;;;;;;;66.47;32.53;;;-0.10;99.90;;;;;;5042988;28;20485;-84
2023/03/05 02:04:10;;;;;;;50.73;24.53;;;-0.10;99.90;;;;;;5041643;28;20021;-84
2023/03/05 02:06:37;;;;;;;70.87;33.67;;;-0.10;99.90;;;;;;5039705;28;20116;-84
2023/03/05 02:09:03;;;;;;;67.43;33.57;;;-0.10;99.90;;;;;;5042765;28;20013;-85
2023/03/05 02:11:29;;;;;;;64.57;32.70;;;-0.10;99.90;;;;;;5040725;28;20025;-84
2023/03/05 02:13:55;;;;;;;67.07;31.87;;;-0.10;99.90;;;;;;5038814;28;20036;-84
2023/03/05 02:16:21;;;;;;;64.20;32.30;;;-0.10;99.90;;;;;;5039863;28;20026;-84
2023/03/05 02:18:46;;;;;;;61.53;32.60;;;-0.10;99.90;;;;;;5040648;28;20048;-84
2023/03/05 02:21:12;;;;;;;67.77;33.13;;;-0.10;99.90;;;;;;5039365;28;20104;-84
2023/03/05 02:23:39;;;;;;;63.10;33.80;;;0.00;99.90;;;;;;5039303;28;20021;-84
2023/03/05 02:26:07;;;;;;;64.83;32.53;;;0.00;99.90;;;;;;5036833;28;20491;-84
2023/03/05 02:28:45;;;;;;;70.00;34.23;;;-0.10;99.90;;;;;;5038534;28;20029;-84
2023/03/05 02:31:17;;;;;;;72.23;35.50;;;0.00;99.90;;;;;;5041591;28;20044;-84
2023/03/05 02:33:43;;;;;;;69.23;33.07;;;0.00;99.90;;;;;;5040812;28;20021;-84
2023/03/05 02:36:10;;;;;;;68.87;34.43;;;-0.10;99.90;;;;;;5039160;28;20366;-84
2023/03/05 02:38:37;;;;;;;69.93;33.90;;;0.00;99.90;;;;;;5042543;28;20013;-84
2023/03/05 02:41:02;;;;;;;73.03;34.73;;;0.00;99.90;;;;;;5038843;28;20017;-84
2023/03/05 02:43:28;;;;;;;70.63;33.50;;;0.00;99.90;;;;;;5040978;28;20369;-84
2023/03/05 02:45:53;;;;;;;68.93;34.17;;;0.00;99.90;;;;;;5042785;28;20025;-84
2023/03/05 02:48:19;;;;;;;71.43;35.73;;;0.00;99.90;;;;;;5032850;28;20048;-84
2023/03/05 02:50:46;;;;;;;72.07;34.57;;;0.00;99.90;;;;;;5037784;28;20079;-84
2023/03/05 02:53:11;;;;;;;71.00;35.00;;;0.00;99.90;;;;;;5038197;28;20029;-84
2023/03/05 02:55:37;;;;;;;74.63;35.80;;;0.00;99.90;;;;;;5037398;28;20098;-83
2023/03/05 02:58:02;;;;;;;70.43;34.40;;;0.00;99.90;;;;;;5040521;28;20032;-84
2023/03/05 03:00:28;;;;;;;74.20;33.80;;;0.10;99.90;;;;;;5039162;28;20128;-84
2023/03/05 03:02:54;;;;;;;75.37;36.37;;;0.10;99.90;;;;;;5039409;28;20028;-84
2023/03/05 03:05:20;;;;;;;72.43;33.63;;;0.10;99.90;;;;;;5040001;28;20715;-83
2023/03/05 03:07:45;;;;;;;69.47;34.27;;;0.10;99.90;;;;;;5039319;28;20041;-84
2023/03/05 03:10:11;;;;;;;71.47;33.80;;;0.10;99.90;;;;;;5038490;28;20025;-84
2023/03/05 03:12:42;;;;;;;74.43;35.93;;;0.10;99.90;;;;;;5038245;28;20029;-84
2023/03/05 03:15:09;;;;;;;75.13;35.50;;;0.10;99.90;;;;;;5038628;28;20022;-84
2023/03/05 03:17:35;;;;;;;66.67;33.67;;;0.10;99.90;;;;;;5039828;28;20026;-83
2023/03/05 03:20:03;;;;;;;65.87;32.00;;;0.20;99.90;;;;;;5037895;28;20013;-84
2023/03/05 03:22:29;;;;;;;72.80;35.40;;;0.10;99.90;;;;;;5039529;28;20880;-84
2023/03/05 03:24:55;;;;;;;79.07;35.57;;;0.20;99.90;;;;;;5039624;28;20021;-84
2023/03/05 03:27:21;;;;;;;68.97;33.47;;;0.20;99.90;;;;;;5036821;28;20396;-84
2023/03/05 03:29:46;;;;;;;72.53;35.17;;;0.10;99.90;;;;;;5039490;28;20029;-84
2023/03/05 03:32:12;;;;;;;70.03;34.43;;;0.10;99.90;;;;;;5039356;28;20032;-84
2023/03/05 03:34:38;;;;;;;71.63;34.80;;;0.20;99.90;;;;;;5038995;28;20028;-84
2023/03/05 03:37:03;;;;;;;72.80;33.30;;;0.20;99.90;;;;;;5039863;28;20076;-84
2023/03/05 03:39:29;;;;;;;74.37;34.93;;;0.20;99.90;;;;;;5038738;28;20028;-84
2023/03/05 03:41:55;;;;;;;73.03;34.87;;;0.20;99.90;;;;;;5037525;28;20040;-84
2023/03/05 03:44:21;;;;;;;70.17;33.60;;;0.20;99.90;;;;;;5036567;28;20083;-84
2023/03/05 03:46:48;;;;;;;67.60;32.67;;;0.20;99.90;;;;;;5038398;28;20433;-84
2023/03/05 03:49:19;;;;;;;69.30;34.37;;;0.20;99.90;;;;;;5039751;28;20025;-84
2023/03/05 03:51:46;;;;;;;62.57;30.77;;;0.20;99.90;;;;;;5037340;28;20421;-84
2023/03/05 03:54:13;;;;;;;68.23;33.80;;;0.30;99.90;;;;;;5035629;28;20045;-84
2023/03/05 03:56:39;;;;;;;70.70;33.87;;;0.30;99.90;;;;;;5035918;28;20033;-84
2023/03/05 03:59:05;;;;;;;66.00;31.83;;;0.30;99.90;;;;;;5034410;28;20021;-84
2023/03/05 04:01:30;;;;;;;64.67;33.60;;;0.30;99.90;;;;;;5039605;28;20025;-84
2023/03/05 04:03:56;;;;;;;70.33;34.00;;;0.30;99.90;;;;;;5038339;28;20160;-84
2023/03/05 04:06:22;;;;;;;65.97;31.83;;;0.30;99.90;;;;;;5037048;28;20036;-84
2023/03/05 04:08:47;;;;;;;68.57;33.53;;;0.30;99.90;;;;;;5037625;28;20029;-84
2023/03/05 04:11:14;;;;;;;71.40;34.50;;;0.30;99.90;;;;;;5039428;28;20032;-84
2023/03/05 04:13:40;;;;;;;73.03;34.27;;;0.30;99.90;;;;;;5039800;28;20017;-84
2023/03/05 04:16:06;;;;;;;68.87;32.03;;;0.40;99.90;;;;;;5038372;28;20363;-84
2023/03/05 04:18:32;;;;;;;70.93;33.97;;;0.30;99.90;;;;;;5038116;28;20056;-84
2023/03/05 04:20:57;;;;;;;71.20;34.97;;;0.40;99.90;;;;;;5038077;28;20157;-85
2023/03/05 04:23:25;;;;;;;73.47;34.13;;;0.30;99.90;;;;;;5040701;28;20025;-84
2023/03/05 04:25:51;;;;;;;64.33;32.93;;;0.40;99.90;;;;;;5036218;28;20032;-84
2023/03/05 04:28:16;;;;;;;67.90;33.43;;;0.40;99.90;;;;;;5038349;28;20075;-84
2023/03/05 04:30:42;;;;;;;62.50;33.03;;;0.40;99.90;;;;;;5037912;28;20025;-84
2023/03/05 04:33:08;;;;;;;69.17;33.83;;;0.40;99.90;;;;;;5039628;28;20074;-84
2023/03/05 04:35:33;;;;;;;65.97;32.23;;;0.40;99.90;;;;;;5039240;28;20032;-84
2023/03/05 04:37:59;;;;;;;68.30;34.00;;;0.50;99.90;;;;;;5037559;28;20032;-84
2023/03/05 04:40:25;;;;;;;69.53;33.63;;;0.50;99.90;;;;;;5037633;28;20020;-84
2023/03/05 04:42:50;;;;;;;66.70;32.97;;;0.50;99.90;;;;;;5035508;28;20041;-84
2023/03/05 04:45:16;;;;;;;66.73;33.00;;;0.50;99.90;;;;;;5039659;28;20029;-84
2023/03/05 04:47:42;;;;;;;61.70;32.20;;;0.50;99.90;;;;;;4999699;28;1058329;-84
2023/03/05 04:50:08;;;;;;;70.93;33.90;;;0.50;99.90;;;;;;5039279;28;20052;-84
2023/03/05 04:52:36;;;;;;;74.33;34.97;;;0.50;99.90;;;;;;5038279;28;20021;-84
2023/03/05 04:55:02;;;;;;;60.63;31.03;;;0.50;99.90;;;;;;5035563;28;20022;-84
2023/03/05 04:57:28;;;;;;;69.70;32.13;;;0.50;99.90;;;;;;5038456;28;20071;-84
2023/03/05 04:59:53;;;;;;;66.63;32.60;;;0.50;99.90;;;;;;5038148;28;20424;-84
2023/03/05 05:02:19;;;;;;;69.23;33.07;;;0.50;99.90;;;;;;5037408;28;20022;-84
2023/03/05 05:04:44;;;;;;;64.33;30.33;;;0.50;99.90;;;;;;5035130;28;20097;-84
2023/03/05 05:07:11;;;;;;;68.07;31.87;;;0.50;99.90;;;;;;5036187;28;20025;-83
2023/03/05 05:09:37;;;;;;;68.17;32.83;;;0.50;99.90;;;;;;5036969;28;20037;-84
2023/03/05 05:12:04;;;;;;;61.90;30.70;;;0.50;99.90;;;;;;5036872;28;20096;-84
2023/03/05 05:14:29;;;;;;;60.77;31.07;;;0.50;99.90;;;;;;5037300;28;20144;-84
2023/03/05 05:16:55;;;;;;;64.20;31.03;;;0.50;99.90;;;;;;5033566;28;20099;-84
2023/03/05 05:19:20;;;;;;;62.10;30.80;;;0.50;99.90;;;;;;5031811;28;20026;-85
2023/03/05 05:21:46;;;;;;;67.53;32.83;;;0.50;99.90;;;;;;5033713;28;20092;-85
2023/03/05 05:24:11;;;;;;;67.50;33.10;;;0.50;99.90;;;;;;5031675;28;20017;-85
2023/03/05 05:26:37;;;;;;;63.47;31.27;;;0.50;99.90;;;;;;5035496;28;20051;-85
2023/03/05 05:29:03;;;;;;;66.13;32.80;;;0.50;99.90;;;;;;5039779;28;20053;-85
2023/03/05 05:31:28;;;;;;;64.90;31.00;;;0.50;99.90;;;;;;5036714;28;20432;-85
2023/03/05 05:33:54;;;;;;;63.87;32.33;;;0.60;99.90;;;;;;5040238;28;20030;-85
2023/03/05 05:36:21;;;;;;;61.73;31.07;;;0.60;99.90;;;;;;5035506;28;20485;-84
2023/03/05 05:38:47;;;;;;;61.00;30.27;;;0.50;99.90;;;;;;5038462;28;20025;-84
2023/03/05 05:41:14;;;;;;;62.77;31.17;;;0.60;99.90;;;;;;5032051;28;21649;-84
2023/03/05 05:43:40;;;;;;;64.73;30.73;;;0.60;99.90;;;;;;5031505;28;20432;-84
2023/03/05 05:46:09;;;;;;;63.83;30.27;;;0.60;99.90;;;;;;5031240;28;20096;-83
2023/03/05 05:48:36;;;;;;;59.83;30.30;;;0.60;99.90;;;;;;5033341;28;20037;-85
2023/03/05 05:51:07;;;;;;;64.40;31.57;;;0.60;99.90;;;;;;5034324;28;20474;-84
2023/03/05 05:53:32;;;;;;;65.37;31.77;;;0.60;99.90;;;;;;5031749;28;20021;-84
2023/03/05 05:55:58;;;;;;;64.10;30.07;;;0.60;99.90;;;;;;5034079;28;20032;-84
2023/03/05 05:58:23;;;;;;;56.83;28.97;;;0.60;99.90;;;;;;5033404;28;20031;-85
2023/03/05 06:00:49;;;;;;;58.17;28.40;;;0.70;99.90;;;;;;5032563;28;20018;-85
2023/03/05 06:03:14;;;;;;;60.10;29.13;;;0.70;99.90;;;;;;5034925;28;20032;-85
2023/03/05 06:05:41;;;;;;;54.13;27.03;;;0.70;99.90;;;;;;5031957;28;20061;-85
2023/03/05 06:08:07;;;;;;;55.73;26.83;;;0.80;99.90;;;;;;5035830;28;20032;-85
2023/03/05 06:10:33;;;;;;;56.83;28.90;;;0.70;99.90;;;;;;5031288;28;20021;-85
2023/03/05 06:12:59;;;;;;;53.07;26.87;;;0.70;99.90;;;;;;5032572;28;20040;-84
2023/03/05 06:15:24;;;;;;;51.80;27.63;;;0.80;99.90;;;;;;5031020;28;20021;-84
2023/03/05 06:17:51;;;;;;;56.37;27.77;;;0.80;99.90;;;;;;5035826;28;20044;-84
2023/03/05 06:20:17;;;;;;;53.87;27.20;;;0.80;99.90;;;;;;5036069;28;20017;-85
2023/03/05 06:22:43;;;;;;;55.43;27.57;;;0.90;99.90;;;;;;5035392;28;20020;-85
2023/03/05 06:25:09;;;;;;;58.00;29.20;;;0.90;99.90;;;;;;5033979;28;20401;-85
2023/03/05 06:27:36;;;;;;;65.40;31.60;;;0.90;99.90;;;;;;5036897;28;20481;-85
2023/03/05 06:30:02;;;;;;;63.87;29.87;;;0.90;99.90;;;;;;5031966;28;20384;-85
2023/03/05 06:32:27;;;;;;;55.57;27.77;;;0.90;99.90;;;;;;5034554;28;20029;-85
2023/03/05 06:34:53;;;;;;;53.50;27.70;;;0.90;99.90;;;;;;5031942;28;20029;-85
2023/03/05 06:37:18;;;;;;;52.50;25.47;;;0.90;99.90;;;;;;5036867;28;20115;-85
2023/03/05 06:39:44;;;;;;;50.80;26.33;;;0.90;99.90;;;;;;5035969;28;20032;-86
2023/03/05 06:42:10;;;;;;;55.17;27.50;;;0.90;99.90;;;;;;5032065;28;20030;-85
2023/03/05 06:44:39;;;;;;;50.07;25.83;;;0.90;99.90;;;;;;5031777;28;20018;-85
2023/03/05 06:47:09;;;;;;;60.00;27.70;;;1.00;99.90;;;;;;5031573;28;20044;-85
2023/03/05 06:49:37;;;;;;;50.77;26.33;;;0.90;99.90;;;;;;5038773;28;20024;-84
2023/03/05 06:52:09;;;;;;;52.87;26.53;;;0.90;99.90;;;;;;5037839;28;20051;-85
2023/03/05 06:54:44;;;;;;;56.63;28.23;;;0.90;99.90;;;;;;5032002;28;20041;-85
2023/03/05 06:57:17;;;;;;;54.37;27.47;;;0.90;99.90;;;;;;5032114;28;20566;-85
2023/03/05 06:59:45;;;;;;;50.90;28.20;;;1.00;99.90;;;;;;5033394;28;20097;-85
2023/03/05 07:02:13;;;;;;;56.20;28.30;;;1.00;99.90;;;;;;5036691;28;20036;-86
2023/03/05 07:04:46;;;;;;;54.57;26.97;;;1.00;99.90;;;;;;5036073;28;20017;-85
2023/03/05 07:07:15;;;;;;;52.30;26.60;;;1.00;99.90;;;;;;5034387;28;20032;-84
2023/03/05 07:09:44;;;;;;;59.87;28.43;;;1.00;99.90;;;;;;5033798;28;20543;-85
2023/03/05 07:12:11;;;;;;;49.23;24.90;;;1.00;99.90;;;;;;5032546;28;20062;-85
2023/03/05 07:14:37;;;;;;;49.77;25.50;;;1.00;99.90;;;;;;5034136;28;20140;-85
2023/03/05 07:17:06;;;;;;;49.87;24.73;;;1.00;99.90;;;;;;5041475;28;20462;-86
2023/03/05 07:19:32;;;;;;;52.77;25.10;;;1.00;99.90;;;;;;5037830;28;20029;-86
2023/03/05 07:21:57;;;;;;;46.83;22.90;;;1.10;99.90;;;;;;5035887;28;20026;-86
2023/03/05 07:24:28;;;;;;;54.63;26.13;;;1.10;99.90;;;;;;5034443;28;20074;-86
2023/03/05 07:26:55;;;;;;;46.37;24.43;;;1.20;99.90;;;;;;5035298;28;20382;-86
2023/03/05 07:29:22;;;;;;;46.80;24.60;;;1.20;99.90;;;;;;5035945;28;20025;-87
2023/03/05 07:31:48;;;;;;;46.50;25.17;;;1.20;99.90;;;;;;5033034;28;20017;-86
2023/03/05 07:34:16;;;;;;;44.97;23.07;;;1.30;99.90;;;;;;5040335;28;20048;-79
2023/03/05 07:36:41;;;;;;;50.53;24.27;;;1.30;99.90;;;;;;5036664;28;20026;-79
2023/03/05 07:39:09;;;;;;;50.73;24.30;;;1.40;99.90;;;;;;5034717;28;20080;-79
2023/03/05 07:41:34;;;;;;;48.77;25.10;;;1.40;99.90;;;;;;5034909;28;20090;-79
2023/03/05 07:44:00;;;;;;;47.07;24.10;;;1.40;99.90;;;;;;5021777;28;20021;-79
2023/03/05 07:46:29;;;;;;;46.67;25.27;;;1.50;99.90;;;;;;5028815;28;20057;-79
2023/03/05 07:48:55;;;;;;;49.43;24.50;;;1.50;99.90;;;;;;5052502;28;20497;-79
2023/03/05 07:51:22;;;;;;;46.33;25.00;;;1.50;99.90;;;;;;5038776;28;20033;-79
2023/03/05 07:53:49;;;;;;;43.97;24.47;;;1.60;99.90;;;;;;5034132;28;20025;-79
2023/03/05 07:56:24;;;;;;;52.60;24.43;;;1.60;99.90;;;;;;5028309;28;20109;-78
2023/03/05 07:58:49;;;;;;;52.05;26.83;;;1.70;99.90;;;;;;5036310;28;20033;-79
2023/03/05 08:01:15;;;;;;;45.67;24.97;;;1.70;99.90;;;;;;5044632;28;20036;-79
2023/03/05 08:03:42;;;;;;;45.03;24.30;;;1.80;99.90;;;;;;5022675;28;20026;-78
2023/03/05 08:06:09;;;;;;;46.27;25.33;;;1.80;99.90;;;;;;5017483;28;20024;-79
2023/03/05 08:08:35;;;;;;;44.40;22.93;;;1.80;99.90;;;;;;5038199;28;20025;-81
2023/03/05 08:11:07;;;;;;;51.97;25.53;;;1.80;99.90;;;;;;5034363;28;20426;-81
2023/03/05 08:13:33;;;;;;;49.40;25.00;;;1.80;99.90;;;;;;5032612;28;20478;-81
2023/03/05 08:16:04;;;;;;;45.87;24.00;;;1.90;99.90;;;;;;5032598;28;20071;-81
2023/03/05 08:18:30;;;;;;;52.17;24.40;;;1.90;99.90;;;;;;5033822;28;20033;-81
2023/03/05 08:20:55;;;;;;;45.27;24.77;;;1.90;99.90;;;;;;5023093;28;20022;-81
2023/03/05 08:23:21;;;;;;;45.53;24.07;;;1.80;99.90;;;;;;5013941;28;20073;-81
2023/03/05 08:25:46;;;;;;;48.17;24.23;;;1.90;99.90;;;;;;5014519;28;20018;-81
2023/03/05 08:28:12;;;;;;;51.83;24.77;;;1.90;99.90;;;;;;5014232;28;20060;-82
2023/03/05 08:30:39;;;;;;;45.77;24.07;;;1.90;99.90;;;;;;5027043;28;20026;-82
2023/03/05 08:33:05;;;;;;;50.10;23.97;;;1.90;99.90;;;;;;5033907;28;20026;-82
2023/03/05 08:35:30;;;;;;;49.10;24.20;;;2.00;99.90;;;;;;5022059;28;20145;-82
2023/03/05 08:37:56;;;;;;;48.07;24.87;;;2.00;99.90;;;;;;5013881;28;20109;-81
2023/03/05 08:40:21;;;;;;;47.43;24.37;;;2.00;99.90;;;;;;5013581;28;20101;-81
2023/03/05 08:42:47;;;;;;;48.17;24.57;;;2.00;99.90;;;;;;5013912;28;20196;-81
2023/03/05 08:45:13;;;;;;;52.23;25.30;;;2.10;99.90;;;;;;5021011;28;20028;-81
2023/03/05 08:47:38;;;;;;;46.33;23.73;;;2.10;99.90;;;;;;5017341;28;20069;-81
2023/03/05 08:50:04;;;;;;;48.53;24.13;;;2.00;99.90;;;;;;5013949;28;20065;-81
2023/03/05 08:52:30;;;;;;;47.87;24.03;;;2.00;99.90;;;;;;5014003;28;20029;-83
2023/03/05 08:54:56;;;;;;;45.37;22.80;;;2.00;99.90;;;;;;5032206;28;20022;-80
2023/03/05 08:57:24;;;;;;;47.57;24.07;;;2.00;99.90;;;;;;5029393;28;20049;-79
2023/03/05 08:59:49;;;;;;;46.73;23.47;;;2.10;99.90;;;;;;5033163;28;20048;-79
2023/03/05 09:02:15;;;;;;;51.03;24.30;;;2.00;99.90;;;;;;5028967;28;20456;-79
2023/03/05 09:04:41;;;;;;;52.23;24.73;;;2.10;99.90;;;;;;5024839;28;20105;-79
2023/03/05 09:07:07;;;;;;;48.97;24.50;;;2.10;99.90;;;;;;5013536;28;20105;-79
2023/03/05 09:09:36;;;;;;;51.33;24.50;;;2.20;99.90;;;;;;5016324;28;20021;-84
2023/03/05 09:12:02;;;;;;;45.10;23.43;;;2.20;99.90;;;;;;5019599;28;20017;-85
2023/03/05 09:14:28;;;;;;;47.73;24.07;;;2.20;99.90;;;;;;5025551;28;20116;-85
2023/03/05 09:16:55;;;;;;;49.83;25.77;;;2.30;99.90;;;;;;5022828;28;20112;-85
2023/03/05 09:19:23;;;;;;;52.27;24.37;;;2.30;99.90;;;;;;5024751;28;20048;-85
2023/03/05 09:21:48;;;;;;;50.13;25.00;;;2.30;99.90;;;;;;5025253;28;20623;-85
2023/03/05 09:24:14;;;;;;;49.93;24.83;;;2.30;99.90;;;;;;5025915;28;20029;-84
2023/03/05 09:26:47;;;;;;;47.73;24.60;;;2.40;99.90;;;;;;5023531;28;20112;-85
2023/03/05 09:29:23;;;;;;;;;;;;;;;;;;;;;
2023/03/05 09:32:14;;;;;;;49.87;24.60;;;2.40;99.90;;;;;;5022760;28;20498;-86
2023/03/05 09:34:47;;;;;;;47.80;23.37;;;2.40;99.90;;;;;;5026391;28;20636;-85
2023/03/05 09:37:15;;;;;;;48.07;24.90;;;2.50;99.90;;;;;;5021650;28;20033;-85
2023/03/05 09:39:44;;;;;;;46.73;24.50;;;2.50;99.90;;;;;;5025297;28;20427;-79
2023/03/05 09:42:45;;;;;;;50.37;25.13;;;2.50;99.90;;;;;;5031155;28;20386;-79
2023/03/05 09:45:27;;;;;;;47.93;24.07;;;2.60;99.90;;;;;;5033824;28;20100;-79
2023/03/05 09:48:01;;;;;;;52.90;25.37;;;2.70;99.90;;;;;;5034989;28;20559;-79
2023/03/05 09:50:31;;;;;;;49.70;24.10;;;2.70;99.90;;;;;;5030115;28;20079;-79
2023/03/05 09:53:31;;;;;;;48.43;23.47;;;2.70;99.90;;;;;;5035140;28;20382;-79
2023/03/05 09:56:04;;;;;;;51.43;24.57;;;2.70;99.90;;;;;;5029795;28;20022;-79
2023/03/05 09:58:34;;;;;;;48.37;23.63;;;2.60;99.90;;;;;;5036113;28;20025;-79
2023/03/05 10:01:06;;;;;;;51.27;24.43;;;2.60;99.90;;;;;;5034273;28;20021;-79
2023/03/05 10:03:59;;;;;;;49.57;25.33;;;2.60;99.90;;;;;;5034913;28;20041;-78
2023/03/05 10:06:51;;;;;;;50.00;25.23;;;2.70;99.90;;;;;;5035475;28;20417;-79
2023/03/05 10:09:23;;;;;;;50.63;24.10;;;2.60;99.90;;;;;;5037656;28;20025;-78
2023/03/05 10:12:01;;;;;;;48.77;24.13;;;2.60;99.90;;;;;;5033745;28;20423;-78
2023/03/05 10:14:30;;;;;;;49.90;25.00;;;2.70;99.90;;;;;;5036194;28;20026;-78
2023/03/05 10:17:00;;;;;;;49.23;24.47;;;2.70;99.90;;;;;;5033921;28;20141;-78
2023/03/05 10:19:44;;;;;;;46.13;23.33;;;2.70;99.90;;;;;;5041149;28;20022;-79
2023/03/05 10:22:23;;;;;;;48.67;25.17;;;2.70;99.90;;;;;;5041309;28;20133;-78
2023/03/05 10:25:22;;;;;;;47.37;23.33;;;2.70;99.90;;;;;;5032735;28;20037;-78
2023/03/05 10:28:16;;;;;;;45.23;23.93;;;2.80;99.90;;;;;;5038165;28;20472;-78
2023/03/05 10:31:17;;;;;;;43.83;22.53;;;2.90;99.90;;;;;;5036504;28;20022;-79
2023/03/05 10:34:08;;;;;;;43.17;22.83;;;2.90;99.90;;;;;;5042925;28;20025;-79
2023/03/05 10:36:57;;;;;;;49.07;24.70;;;2.90;99.90;;;;;;5038753;28;20407;-79
2023/03/05 10:39:56;;;;;;;44.80;24.00;;;2.90;99.90;;;;;;5046943;28;20504;-79
2023/03/05 10:42:26;;;;;;;47.17;23.17;;;2.90;99.90;;;;;;5038079;28;20033;-80
2023/03/05 10:44:55;;;;;;;49.70;23.63;;;2.90;99.90;;;;;;5025584;28;20025;-80
2023/03/05 10:47:48;;;;;;;45.80;23.77;;;3.00;99.90;;;;;;5026303;28;20054;-80
2023/03/05 10:50:23;;;;;;;48.80;24.23;;;3.00;99.90;;;;;;5040043;28;20370;-80
2023/03/05 10:53:06;;;;;;;49.05;22.73;;;3.00;99.90;;;;;;5034466;28;20021;-79
2023/03/05 10:55:32;;;;;;;45.97;23.70;;;3.00;99.90;;;;;;5023123;28;20029;-80
2023/03/05 10:57:58;;;;;;;46.43;23.13;;;3.00;99.90;;;;;;5029818;28;20024;-79
2023/03/05 11:00:26;;;;;;;44.30;22.97;;;3.10;99.90;;;;;;5041652;28;20018;-79
2023/03/05 11:02:53;;;;;;;51.03;23.60;;;3.10;99.90;;;;;;5041979;28;20041;-79
2023/03/05 11:05:49;;;;;;;44.33;22.37;;;3.10;99.90;;;;;;5034857;28;20024;-80
2023/03/05 11:08:18;;;;;;;;;;;3.20;99.90;;;;;;5026973;28;20399;-79
2023/03/05 11:10:46;;;;;;;41.37;23.07;;;3.30;99.90;;;;;;5040231;28;19911;-79
2023/03/05 11:13:27;;;;;;;44.33;22.10;;;3.30;99.90;;;;;;5039449;28;20022;-80
2023/03/05 11:16:05;;;;;;;46.20;22.47;;;3.30;99.90;;;;;;5034826;28;20045;-79
2023/03/05 11:18:35;;;;;;;42.80;21.40;;;3.30;99.90;;;;;;5038417;28;20481;-79
2023/03/05 11:21:10;;;;;;;47.97;23.07;;;3.40;99.90;;;;;;5021042;28;20426;-80
2023/03/05 11:23:36;;;;;;;48.83;23.80;;;3.40;99.90;;;;;;5022631;28;20373;-79
2023/03/05 11:26:12;;;;;;;42.23;22.00;;;3.50;99.90;;;;;;5038566;28;20031;-80
2023/03/05 11:28:57;;;;;;;43.83;22.47;;;3.60;99.90;;;;;;5043337;28;20370;-80
2023/03/05 11:31:26;;;;;;;39.50;20.83;;;3.70;99.90;;;;;;5039940;28;20025;-80
2023/03/05 11:34:02;;;;;;;40.23;21.60;;;3.70;99.90;;;;;;5039729;28;20396;-80
2023/03/05 11:36:33;;;;;;;34.60;19.10;;;3.70;99.90;;;;;;5034402;28;20033;-80
2023/03/05 11:39:04;;;;;;;39.37;20.90;;;3.80;99.90;;;;;;5019958;28;20087;-80
2023/03/05 11:41:38;;;;;;;43.80;22.27;;;3.70;99.90;;;;;;5014867;28;20018;-80
2023/03/05 11:44:10;;;;;;;44.17;22.13;;;3.70;99.90;;;;;;5039606;28;20013;-81
2023/03/05 11:47:10;;;;;;;39.17;22.20;;;3.70;99.90;;;;;;5040783;28;20093;-79
2023/03/05 11:49:42;;;;;;;45.27;21.90;;;3.70;99.90;;;;;;5027988;28;20065;-79
2023/03/05 11:52:20;;;;;;;40.23;21.03;;;3.60;99.90;;;;;;5023224;28;20022;-79
2023/03/05 11:55:01;;;;;;;38.80;20.93;;;3.70;99.90;;;;;;5028498;28;20132;-80
2023/03/05 11:57:33;;;;;;;36.00;20.20;;;3.70;99.90;;;;;;5044872;28;20064;-80
2023/03/05 12:00:00;;;;;;;42.30;20.83;;;3.60;99.90;;;;;;5045904;28;20087;-81
2023/03/05 12:02:27;;;;;;;37.77;21.47;;;3.60;99.90;;;;;;5034056;28;20105;-80
2023/03/05 12:04:55;;;;;;;47.50;23.23;;;3.60;99.90;;;;;;5027551;28;20070;-80
2023/03/05 12:07:38;;;;;;;40.03;20.73;;;3.70;99.90;;;;;;5031309;28;20033;-80
2023/03/05 12:10:05;;;;;;;44.93;23.37;;;3.80;99.90;;;;;;5020538;28;20025;-80
2023/03/05 12:12:56;;;;;;;41.33;20.70;;;3.80;99.90;;;;;;5020922;28;20443;-80
2023/03/05 12:16:00;;;;;;;34.83;18.20;;;3.80;99.90;;;;;;5021867;28;20072;-80
2023/03/05 12:18:30;;;;;;;36.77;18.63;;;3.80;99.90;;;;;;5007878;28;20127;-81
2023/03/05 12:21:04;;;;;;;33.93;17.83;;;3.80;99.90;;;;;;5031601;28;20416;-81
2023/03/05 12:23:48;;;;;;;34.85;18.40;;;3.70;99.90;;;;;;5019254;28;20399;-81
2023/03/05 12:26:16;;;;;;;35.40;19.07;;;3.70;99.90;;;;;;5021417;28;20021;-81
2023/03/05 12:28:41;;;;;;;34.43;18.97;;;3.70;99.90;;;;;;5032831;28;20029;-81
2023/03/05 12:31:07;;;;;;;39.47;20.00;;;3.70;99.90;;;;;;5033524;28;20022;-81
2023/03/05 12:33:38;;;;;;;33.97;18.07;;;3.70;99.90;;;;;;5038430;28;20040;-81
2023/03/05 12:36:15;;;;;;;35.90;18.23;;;3.60;99.90;;;;;;5031697;28;20017;-81
2023/03/05 12:38:41;;;;;;;36.20;18.03;;;3.70;99.90;;;;;;5019564;28;20370;-82
2023/03/05 12:41:30;;;;;;;33.93;18.43;;;3.60;99.90;;;;;;5026068;28;20014;-81
2023/03/05 12:44:04;;;;;;;40.77;18.87;;;3.60;99.90;;;;;;5010846;28;20033;-82
2023/03/05 12:47:03;;;;;;;37.43;18.67;;;3.60;99.90;;;;;;5023692;28;20053;-82